Time;durP1;ratioP1;P1;durP2;ratioP2;P2;SDS_P1;SDS_P2;PMS_P1;PMS_P2;Temp;Humidity;BMP_temperature;BMP_pressure;BME280_temperature;BME280_humidity;BME280_pressure;Samples;Min_cycle;Max_cycle;Signal;HPM_P1;HPM_P2
2023/04/13 00:02:16;;;;;;;8.57;2.90;;;6.30;99.90;;;;;;4970773;28;20057;-83
2023/04/13 00:04:41;;;;;;;7.80;2.90;;;6.30;99.90;;;;;;4969977;28;20353;-84
2023/04/13 00:07:15;;;;;;;7.25;3.90;;;6.40;99.90;;;;;;5002584;28;20061;-83
2023/04/13 00:09:41;;;;;;;8.13;2.63;;;6.40;99.90;;;;;;5003269;28;20041;-83
2023/04/13 00:12:09;;;;;;;6.50;3.95;;;6.50;99.90;;;;;;5006580;28;20053;-83
2023/04/13 00:14:35;;;;;;;9.75;2.85;;;6.60;99.90;;;;;;5007317;28;20848;-83
2023/04/13 00:17:04;;;;;;;6.00;2.65;;;6.70;99.90;;;;;;5007225;28;20088;-83
2023/04/13 00:19:35;;;;;;;9.05;4.18;;;6.70;99.90;;;;;;5002716;28;20351;-82
2023/04/13 00:22:02;;;;;;;6.53;2.78;;;6.80;99.90;;;;;;5007370;28;20587;-83
2023/04/13 00:24:28;;;;;;;7.95;4.20;;;6.90;99.90;;;;;;5006150;28;20046;-83
2023/04/13 00:26:55;;;;;;;7.38;3.05;;;7.00;99.90;;;;;;5006011;28;20049;-83
2023/04/13 00:29:21;;;;;;;7.82;3.78;;;7.00;99.90;;;;;;4997998;28;20034;-83
2023/04/13 00:31:47;;;;;;;7.38;3.80;;;7.10;99.90;;;;;;5006806;28;20419;-83
2023/04/13 00:34:12;;;;;;;5.90;2.97;;;7.10;99.90;;;;;;5006899;28;20054;-82
2023/04/13 00:36:38;;;;;;;7.40;2.88;;;7.20;99.90;;;;;;5005905;28;20431;-82
2023/04/13 00:39:05;;;;;;;8.35;3.80;;;7.20;99.90;;;;;;5007656;28;20038;-83
2023/04/13 00:41:31;;;;;;;7.97;4.00;;;7.20;99.90;;;;;;5006409;28;20121;-84
2023/04/13 00:43:57;;;;;;;7.38;3.50;;;7.20;99.90;;;;;;5007026;28;20177;-84
2023/04/13 00:46:23;;;;;;;6.93;3.00;;;7.20;99.90;;;;;;5005734;28;20049;-83
2023/04/13 00:48:48;;;;;;;2.83;1.30;;;7.20;99.90;;;;;;5020357;28;20037;-83
2023/04/13 00:51:15;;;;;;;5.43;2.00;;;7.10;99.90;;;;;;5021801;28;20050;-84
2023/04/13 00:53:41;;;;;;;5.10;1.88;;;7.00;99.90;;;;;;5006994;28;20111;-84
2023/04/13 00:56:08;;;;;;;7.05;3.15;;;6.90;99.90;;;;;;5006994;28;20046;-85
2023/04/13 00:58:34;;;;;;;7.25;3.47;;;6.90;99.90;;;;;;5005483;28;20041;-84
2023/04/13 01:01:01;;;;;;;7.05;3.63;;;6.90;99.90;;;;;;5006888;28;20064;-86
2023/04/13 01:03:26;;;;;;;7.10;3.60;;;6.80;99.90;;;;;;5006133;28;20080;-84
2023/04/13 01:06:25;;;;;;;7.38;2.42;;;6.80;99.90;;;;;;5001290;28;20495;-83
2023/04/13 01:09:03;;;;;;;8.27;3.60;;;6.70;99.90;;;;;;4976389;28;20539;-84
2023/04/13 01:11:51;;;;;;;6.38;2.30;;;6.70;99.90;;;;;;4987081;28;20034;-85
2023/04/13 01:14:29;;;;;;;7.05;3.15;;;6.70;99.90;;;;;;4986921;28;20038;-86
2023/04/13 01:17:01;;;;;;;7.22;3.10;;;6.70;99.90;;;;;;4986725;28;20026;-86
2023/04/13 01:19:39;;;;;;;5.35;1.83;;;6.70;99.90;;;;;;4984258;28;20038;-85
2023/04/13 01:22:07;;;;;;;5.10;1.92;;;6.70;99.90;;;;;;4994555;28;20053;-86
2023/04/13 01:24:46;;;;;;;6.95;3.13;;;6.60;99.90;;;;;;4989084;28;20372;-86
2023/04/13 01:27:24;;;;;;;6.50;2.80;;;6.60;99.90;;;;;;4967785;28;20117;-85
2023/04/13 01:29:50;;;;;;;4.95;1.83;;;6.60;99.90;;;;;;4937325;28;20050;-85
2023/04/13 01:32:16;;;;;;;4.25;1.65;;;6.60;99.90;;;;;;4969361;28;21535;-86
2023/04/13 01:34:42;;;;;;;7.30;2.97;;;6.60;99.90;;;;;;4978628;28;20042;-84
2023/04/13 01:37:08;;;;;;;6.68;2.88;;;6.60;99.90;;;;;;4972335;28;20046;-84
2023/04/13 01:39:36;;;;;;;6.60;2.00;;;6.60;99.90;;;;;;4987765;28;20076;-86
2023/04/13 01:42:02;;;;;;;7.05;3.10;;;6.60;99.90;;;;;;4987544;28;20447;-85
2023/04/13 01:44:32;;;;;;;8.68;2.85;;;6.60;99.90;;;;;;4969801;28;20038;-85
2023/04/13 01:47:14;;;;;;;4.07;1.95;;;6.60;99.90;;;;;;4985992;28;20441;-85
2023/04/13 01:49:47;;;;;;;3.97;1.15;;;6.60;99.90;;;;;;4989966;28;20034;-85
2023/04/13 01:52:14;;;;;;;4.97;2.30;;;6.60;99.90;;;;;;4990249;28;20053;-84
2023/04/13 01:54:44;;;;;;;5.93;2.50;;;6.70;99.90;;;;;;4990616;28;20034;-84
2023/04/13 01:57:13;;;;;;;5.45;1.52;;;6.70;99.90;;;;;;4991034;28;20035;-86
2023/04/13 01:59:39;;;;;;;6.63;2.38;;;6.60;99.90;;;;;;4989727;28;20085;-86
2023/04/13 02:02:06;;;;;;;5.90;2.05;;;6.70;99.90;;;;;;4990714;28;20042;-85
2023/04/13 02:04:32;;;;;;;4.97;1.60;;;6.60;99.90;;;;;;4991019;28;20416;-87
2023/04/13 02:06:58;;;;;;;4.82;1.50;;;6.60;99.90;;;;;;4990648;28;20140;-86
2023/04/13 02:09:24;;;;;;;7.10;2.47;;;6.60;99.90;;;;;;4990899;28;20050;-87
2023/04/13 02:11:49;;;;;;;7.38;2.30;;;6.60;99.90;;;;;;4989349;28;20046;-87
2023/04/13 02:14:15;;;;;;;7.15;2.42;;;6.60;99.90;;;;;;4972866;28;20074;-85
2023/04/13 02:16:41;;;;;;;5.88;1.35;;;6.60;99.90;;;;;;4990657;28;20096;-86
2023/04/13 02:19:06;;;;;;;6.82;2.55;;;6.60;99.90;;;;;;4991215;28;20463;-82
2023/04/13 02:21:33;;;;;;;5.07;1.67;;;6.60;99.90;;;;;;4990001;28;20053;-86
2023/04/13 02:23:59;;;;;;;5.47;2.20;;;6.60;99.90;;;;;;4990938;28;20042;-85
2023/04/13 02:26:24;;;;;;;5.25;1.55;;;6.60;99.90;;;;;;4990589;28;20468;-86
2023/04/13 02:28:51;;;;;;;8.00;2.60;;;6.60;99.90;;;;;;4972210;28;20053;-87
2023/04/13 02:31:18;;;;;;;3.95;1.40;;;6.60;99.90;;;;;;4990423;28;20061;-85
2023/04/13 02:33:45;;;;;;;5.22;1.63;;;6.60;99.90;;;;;;4988979;28;20065;-85
2023/04/13 02:36:11;;;;;;;6.75;2.38;;;6.50;99.90;;;;;;4972655;28;20073;-87
2023/04/13 02:38:37;;;;;;;7.68;2.55;;;6.60;99.90;;;;;;4989983;28;20046;-85
2023/04/13 02:41:02;;;;;;;4.50;1.30;;;6.60;99.90;;;;;;4989904;28;20049;-86
2023/04/13 02:43:28;;;;;;;5.85;2.38;;;6.50;99.90;;;;;;4989220;28;20042;-85
2023/04/13 02:45:55;;;;;;;4.22;1.45;;;6.60;99.90;;;;;;4968245;28;20517;-87
2023/04/13 02:48:20;;;;;;;4.72;1.52;;;6.50;99.90;;;;;;4972103;28;20034;-85
2023/04/13 02:50:46;;;;;;;6.30;2.55;;;6.50;99.90;;;;;;4977393;28;20049;-85
2023/04/13 02:53:14;;;;;;;4.57;1.73;;;6.60;99.90;;;;;;4990963;28;20066;-85
2023/04/13 02:55:39;;;;;;;6.35;2.50;;;6.50;99.90;;;;;;4990557;28;20038;-86
2023/04/13 02:58:08;;;;;;;4.47;1.48;;;6.50;99.90;;;;;;4989651;28;20049;-86
2023/04/13 03:00:33;;;;;;;6.57;2.38;;;6.50;99.90;;;;;;4991210;28;20057;-85
2023/04/13 03:03:01;;;;;;;4.32;1.75;;;6.50;99.90;;;;;;4988913;28;20042;-85
2023/04/13 03:05:30;;;;;;;7.50;2.30;;;6.50;99.90;;;;;;4988799;28;20068;-85
2023/04/13 03:07:56;;;;;;;4.40;1.42;;;6.60;99.90;;;;;;4992142;28;20054;-85
2023/04/13 03:10:22;;;;;;;5.13;2.28;;;6.60;99.90;;;;;;4991223;28;20054;-85
2023/04/13 03:12:48;;;;;;;5.38;2.30;;;6.60;99.90;;;;;;4972834;28;20049;-86
2023/04/13 03:15:14;;;;;;;7.30;2.67;;;6.60;99.90;;;;;;4973186;28;20038;-86
2023/04/13 03:17:40;;;;;;;4.25;1.70;;;6.60;99.90;;;;;;4972162;28;20053;-86
2023/04/13 03:20:11;;;;;;;7.60;3.03;;;6.60;99.90;;;;;;4990175;28;20054;-85
2023/04/13 03:22:38;;;;;;;3.65;1.30;;;6.60;99.90;;;;;;4989352;28;20046;-86
2023/04/13 03:25:05;;;;;;;5.50;1.88;;;6.50;99.90;;;;;;4989059;28;20042;-85
2023/04/13 03:27:31;;;;;;;5.75;1.80;;;6.50;99.90;;;;;;4987887;28;20069;-85
2023/04/13 03:29:56;;;;;;;6.35;2.75;;;6.50;99.90;;;;;;4990570;28;20046;-85
2023/04/13 03:32:22;;;;;;;7.80;2.92;;;6.50;99.90;;;;;;4990808;28;20410;-85
2023/04/13 03:34:48;;;;;;;5.82;2.38;;;6.60;99.90;;;;;;4969225;28;20077;-85
2023/04/13 03:37:13;;;;;;;5.30;1.75;;;6.60;99.90;;;;;;4990048;28;20042;-86
2023/04/13 03:39:39;;;;;;;7.60;2.92;;;6.50;99.90;;;;;;4989937;28;20455;-85
2023/04/13 03:42:05;;;;;;;4.10;1.73;;;6.50;99.90;;;;;;4988831;28;20452;-86
2023/04/13 03:44:30;;;;;;;5.60;1.85;;;6.50;99.90;;;;;;4989924;28;20038;-85
2023/04/13 03:46:56;;;;;;;5.90;2.50;;;6.50;99.90;;;;;;4970281;28;20090;-85
2023/04/13 03:49:22;;;;;;;4.30;1.42;;;6.50;99.90;;;;;;4989359;28;20249;-84
2023/04/13 03:51:47;;;;;;;3.90;1.50;;;6.60;99.90;;;;;;4988989;28;20053;-86
2023/04/13 03:54:13;;;;;;;5.22;2.45;;;6.60;99.90;;;;;;4973116;28;20093;-85
2023/04/13 03:56:39;;;;;;;6.00;3.00;;;6.60;99.90;;;;;;4974225;28;20105;-84
2023/04/13 03:59:04;;;;;;;4.90;1.92;;;6.70;99.90;;;;;;4989353;28;20042;-86
2023/04/13 04:01:30;;;;;;;6.65;3.05;;;6.70;99.90;;;;;;4989025;28;20046;-86
2023/04/13 04:03:56;;;;;;;6.05;3.28;;;6.70;99.90;;;;;;4989527;28;20703;-86
2023/04/13 04:06:26;;;;;;;3.80;1.88;;;6.70;99.90;;;;;;4990062;28;20415;-86
2023/04/13 04:08:51;;;;;;;7.05;3.40;;;6.60;99.90;;;;;;4989118;28;20078;-85
2023/04/13 04:11:17;;;;;;;6.90;2.08;;;6.60;99.90;;;;;;4988465;28;20090;-85
2023/04/13 04:13:43;;;;;;;5.97;1.65;;;6.60;99.90;;;;;;4977881;28;20077;-84
2023/04/13 04:16:10;;;;;;;7.38;3.33;;;6.60;99.90;;;;;;4989510;28;20038;-83
2023/04/13 04:18:36;;;;;;;8.27;2.55;;;6.70;99.90;;;;;;4990391;28;20468;-84
2023/04/13 04:21:02;;;;;;;5.38;2.03;;;6.70;99.90;;;;;;4990436;28;20073;-85
2023/04/13 04:23:28;;;;;;;7.63;3.90;;;6.70;99.90;;;;;;4996395;28;20046;-85
2023/04/13 04:25:58;;;;;;;5.20;2.10;;;6.70;99.90;;;;;;4998534;28;20398;-85
2023/04/13 04:28:24;;;;;;;7.70;4.22;;;6.70;99.90;;;;;;5002453;28;20078;-85
2023/04/13 04:30:52;;;;;;;5.82;2.45;;;6.70;99.90;;;;;;4992213;28;20505;-85
2023/04/13 04:33:21;;;;;;;4.70;2.13;;;6.70;99.90;;;;;;4992953;28;20104;-86
2023/04/13 04:35:52;;;;;;;9.05;4.65;;;6.70;99.90;;;;;;4989888;28;20045;-85
2023/04/13 04:38:20;;;;;;;7.90;4.78;;;6.70;99.90;;;;;;4986383;28;20072;-84
2023/04/13 04:40:47;;;;;;;6.57;2.58;;;6.70;99.90;;;;;;4987218;28;20041;-85
2023/04/13 04:43:13;;;;;;;7.80;4.90;;;6.70;99.90;;;;;;4988010;28;20438;-86
2023/04/13 04:45:42;;;;;;;5.72;2.20;;;6.70;99.90;;;;;;4987024;28;20053;-85
2023/04/13 04:48:10;;;;;;;8.32;4.82;;;6.70;99.90;;;;;;4982237;28;20487;-83
2023/04/13 04:50:36;;;;;;;7.68;2.50;;;6.70;99.90;;;;;;4985205;28;20042;-85
2023/04/13 04:53:05;;;;;;;5.30;2.20;;;6.60;99.90;;;;;;4970183;28;20073;-88
2023/04/13 04:55:32;;;;;;;5.43;2.55;;;6.60;99.90;;;;;;4987512;28;20039;-90
2023/04/13 04:57:57;;;;;;;7.25;2.67;;;6.50;99.90;;;;;;4971317;28;20507;-88
2023/04/13 05:00:25;;;;;;;8.93;4.90;;;6.40;99.90;;;;;;4990226;28;20046;-88
2023/04/13 05:02:51;;;;;;;8.55;3.03;;;6.40;99.90;;;;;;4988133;28;20097;-88
2023/04/13 05:05:17;;;;;;;9.55;5.38;;;6.30;99.90;;;;;;4986813;28;20046;-83
2023/04/13 05:07:44;;;;;;;7.07;2.53;;;6.30;99.90;;;;;;5005069;28;20064;-86
2023/04/13 05:10:10;;;;;;;7.43;2.92;;;6.30;99.90;;;;;;5006416;28;20110;-85
2023/04/13 05:12:36;;;;;;;10.02;5.75;;;6.20;99.90;;;;;;5006738;28;20470;-87
2023/04/13 05:15:03;;;;;;;8.07;3.30;;;6.20;99.90;;;;;;5006631;28;20056;-86
2023/04/13 05:17:29;;;;;;;9.48;6.00;;;6.20;99.90;;;;;;5006815;28;20034;-88
2023/04/13 05:19:54;;;;;;;9.15;5.97;;;6.20;99.90;;;;;;5007357;28;20048;-84
2023/04/13 05:22:20;;;;;;;8.23;2.95;;;6.20;99.90;;;;;;5006773;28;20521;-86
2023/04/13 05:24:46;;;;;;;7.55;2.75;;;6.20;99.90;;;;;;5009119;28;20425;-90
2023/04/13 05:27:12;;;;;;;7.55;2.90;;;6.20;99.90;;;;;;5010490;28;20453;-90
2023/04/13 05:29:39;;;;;;;10.85;5.82;;;6.20;99.90;;;;;;5009492;28;20052;-96
2023/04/13 05:32:04;;;;;;;6.70;2.60;;;6.20;99.90;;;;;;5008441;28;20057;-90
2023/04/13 05:34:31;;;;;;;7.13;2.92;;;6.20;99.90;;;;;;5008486;28;20033;-85
2023/04/13 05:36:57;;;;;;;9.55;5.57;;;6.30;99.90;;;;;;5008200;28;20046;-86
2023/04/13 05:39:23;;;;;;;7.10;2.80;;;6.40;99.90;;;;;;5011415;28;20049;-86
2023/04/13 05:41:49;;;;;;;7.18;2.70;;;6.40;99.90;;;;;;5007289;28;20050;-85
2023/04/13 05:44:15;;;;;;;9.00;5.28;;;6.50;99.90;;;;;;5004440;28;20056;-86
2023/04/13 05:46:41;;;;;;;8.48;3.05;;;6.50;99.90;;;;;;5005976;28;20034;-87
2023/04/13 05:49:07;;;;;;;8.27;2.80;;;6.40;99.90;;;;;;5004656;28;20057;-83
2023/04/13 05:51:33;;;;;;;9.38;4.90;;;6.40;99.90;;;;;;5000455;28;20596;-84
2023/04/13 05:53:59;;;;;;;7.97;3.15;;;6.50;99.90;;;;;;5004357;28;20049;-86
2023/04/13 05:56:25;;;;;;;7.43;3.13;;;6.50;99.90;;;;;;5005899;28;20038;-85
2023/04/13 10:58:52;;;;;;;7.90;2.33;;;11.10;99.90;;;;;;5080111;27;20850;-80
2023/04/13 11:01:19;;;;;;;9.23;2.47;;;11.30;99.90;;;;;;5079913;28;20054;-79
2023/04/13 11:03:46;;;;;;;12.63;2.60;;;11.20;99.90;;;;;;5082860;28;20045;-79
2023/04/13 11:06:13;;;;;;;11.32;2.80;;;11.20;99.90;;;;;;5081547;28;20044;-80
2023/04/13 11:08:41;;;;;;;10.55;2.40;;;11.20;99.90;;;;;;5082807;28;20155;-79
2023/04/13 11:11:06;;;;;;;11.50;2.70;;;11.20;99.90;;;;;;5079565;28;20129;-80
2023/04/13 11:13:32;;;;;;;10.75;2.40;;;11.20;99.90;;;;;;5079757;28;20480;-79
2023/04/13 11:16:02;;;;;;;8.70;2.40;;;11.10;99.90;;;;;;5080184;28;20052;-79
2023/04/13 11:18:28;;;;;;;10.10;2.50;;;11.10;99.90;;;;;;5082865;28;20396;-79
2023/04/13 11:20:54;;;;;;;9.00;2.33;;;11.20;99.90;;;;;;5082621;28;20039;-79
2023/04/13 11:23:22;;;;;;;10.27;2.67;;;11.30;99.90;;;;;;5082108;28;20419;-78
2023/04/13 11:25:59;;;;;;;9.82;2.67;;;11.20;99.90;;;;;;5083120;28;20393;-78
2023/04/13 11:28:39;;;;;;;11.90;3.00;;;11.20;99.90;;;;;;5080746;28;20043;-78
2023/04/13 11:31:06;;;;;;;10.73;2.30;;;11.10;99.90;;;;;;5078513;28;20059;-78
2023/04/13 11:33:33;;;;;;;9.70;2.25;;;11.20;99.90;;;;;;5082133;28;20036;-80
2023/04/13 11:35:59;;;;;;;11.23;2.90;;;11.10;99.90;;;;;;5078490;28;20097;-78
2023/04/13 11:38:25;;;;;;;11.07;2.50;;;11.10;99.90;;;;;;5083091;28;20039;-79
2023/04/13 11:40:52;;;;;;;10.32;2.67;;;11.00;99.90;;;;;;5083146;28;20047;-77
2023/04/13 11:43:21;;;;;;;9.70;2.67;;;11.10;99.90;;;;;;5083971;28;20438;-77
2023/04/13 11:45:47;;;;;;;11.52;2.50;;;11.00;99.90;;;;;;5097151;28;20036;-79
2023/04/13 11:48:13;;;;;;;11.07;2.67;;;10.90;99.90;;;;;;5064679;28;20047;-80
2023/04/13 11:50:40;;;;;;;10.18;2.50;;;10.90;99.90;;;;;;5083178;28;20044;-78
2023/04/13 11:53:10;;;;;;;10.35;2.72;;;10.80;99.90;;;;;;5082554;28;20040;-78
2023/04/13 11:55:37;;;;;;;11.63;2.90;;;10.80;99.90;;;;;;5081030;28;20051;-78
2023/04/13 11:58:10;;;;;;;10.98;3.17;;;10.80;99.90;;;;;;5079615;28;20052;-79
2023/04/13 12:00:40;;;;;;;12.98;3.63;;;10.90;99.90;;;;;;5082145;28;20044;-79
2023/04/13 12:03:12;;;;;;;9.20;2.55;;;11.00;99.90;;;;;;5079480;28;20479;-79
2023/04/13 12:05:38;;;;;;;12.43;3.10;;;11.00;99.90;;;;;;5080223;28;20071;-79
2023/04/13 12:08:03;;;;;;;10.93;2.50;;;11.10;99.90;;;;;;5078738;28;20095;-79
2023/04/13 12:10:33;;;;;;;10.82;3.00;;;11.20;99.90;;;;;;5069079;28;20037;-79
2023/04/13 12:13:00;;;;;;;11.15;2.85;;;11.20;99.90;;;;;;5063320;28;20086;-80
2023/04/13 12:15:34;;;;;;;12.32;2.67;;;11.20;99.90;;;;;;5067529;28;20048;-78
2023/04/13 12:18:01;;;;;;;11.48;2.42;;;11.30;99.90;;;;;;5068309;28;20028;-80
2023/04/13 12:20:38;;;;;;;9.88;2.60;;;11.50;99.90;;;;;;5068205;28;20044;-79
2023/04/13 12:23:16;;;;;;;13.10;2.78;;;11.60;99.90;;;;;;5049968;28;20090;-78
2023/04/13 12:25:58;;;;;;;9.18;2.10;;;11.70;99.90;;;;;;5065484;28;20040;-79
2023/04/13 12:28:32;;;;;;;10.75;2.55;;;11.80;99.90;;;;;;5066328;28;20048;-79
2023/04/13 12:31:06;;;;;;;8.23;2.00;;;11.80;99.90;;;;;;5066344;28;20036;-79
2023/04/13 12:33:32;;;;;;;8.70;2.10;;;11.70;99.90;;;;;;5069209;28;20052;-79
2023/04/13 12:35:57;;;;;;;12.38;2.60;;;11.60;99.90;;;;;;5065136;28;20067;-80
2023/04/13 12:38:23;;;;;;;9.23;2.45;;;11.50;99.90;;;;;;5050138;28;20029;-79
2023/04/13 12:41:00;;;;;;;9.90;2.00;;;11.40;99.90;;;;;;5066131;28;20709;-78
2023/04/13 12:43:27;;;;;;;11.00;2.72;;;11.50;99.90;;;;;;5066090;28;20400;-80
2023/04/13 12:45:53;;;;;;;7.28;1.85;;;11.60;99.90;;;;;;5067408;28;20044;-79
2023/04/13 12:48:19;;;;;;;9.75;2.08;;;11.70;99.90;;;;;;5065906;28;20098;-79
2023/04/13 12:50:45;;;;;;;8.00;1.90;;;11.70;99.90;;;;;;5066195;28;20041;-78
2023/04/13 12:53:11;;;;;;;9.07;2.45;;;11.60;99.90;;;;;;5065466;28;20341;-79
2023/04/13 12:55:38;;;;;;;10.70;3.22;;;11.80;99.90;;;;;;5067159;28;20457;-80
2023/04/13 12:58:04;;;;;;;10.48;3.10;;;11.80;99.90;;;;;;5064501;28;20047;-81
2023/04/13 13:00:29;;;;;;;11.10;2.50;;;11.90;99.90;;;;;;5047303;28;20048;-81
2023/04/13 13:02:55;;;;;;;11.20;2.50;;;12.10;99.90;;;;;;5062006;28;20059;-80
2023/04/13 13:05:21;;;;;;;11.57;2.58;;;12.10;99.90;;;;;;5059417;28;20035;-80
2023/04/13 13:07:46;;;;;;;11.38;2.72;;;12.10;99.90;;;;;;5066515;28;20467;-81
2023/04/13 13:10:12;;;;;;;9.98;2.60;;;12.10;99.90;;;;;;5061934;28;20469;-80
2023/04/13 13:12:40;;;;;;;10.35;2.95;;;12.30;99.90;;;;;;5064384;28;20056;-79
2023/04/13 13:15:09;;;;;;;9.75;2.45;;;12.50;99.90;;;;;;5065809;28;20409;-78
2023/04/13 13:17:43;;;;;;;7.63;2.25;;;12.60;99.90;;;;;;5064941;28;20526;-80
2023/04/13 13:20:11;;;;;;;10.68;2.50;;;12.70;99.90;;;;;;5064136;28;20036;-81
2023/04/13 13:22:37;;;;;;;8.00;2.10;;;12.80;99.90;;;;;;5066632;28;20040;-80
2023/04/13 13:25:04;;;;;;;8.07;1.90;;;12.90;99.90;;;;;;5065147;28;20051;-80
2023/04/13 13:27:31;;;;;;;9.55;2.25;;;12.90;99.90;;;;;;5064844;28;20078;-80
2023/04/13 13:29:56;;;;;;;8.40;2.30;;;12.70;99.90;;;;;;5063975;28;20094;-81
2023/04/13 13:32:24;;;;;;;9.80;2.38;;;12.60;99.90;;;;;;5067053;28;20040;-79
2023/04/13 13:34:49;;;;;;;10.35;2.10;;;12.60;99.90;;;;;;5062436;28;20079;-80
2023/04/13 13:37:15;;;;;;;9.55;2.20;;;12.60;99.90;;;;;;5066553;28;20075;-79
2023/04/13 13:39:41;;;;;;;8.80;2.17;;;12.40;99.90;;;;;;5063693;28;20064;-80
2023/04/13 13:42:07;;;;;;;9.30;2.10;;;12.30;99.90;;;;;;5063965;28;20052;-80
2023/04/13 13:44:32;;;;;;;8.98;1.90;;;12.20;99.90;;;;;;5065135;28;20029;-80
2023/04/13 13:46:58;;;;;;;8.55;2.05;;;12.00;99.90;;;;;;5059596;28;20103;-79
2023/04/13 13:49:24;;;;;;;9.10;2.42;;;12.10;99.90;;;;;;5065317;28;20415;-80
2023/04/13 13:51:50;;;;;;;10.88;2.15;;;12.10;99.90;;;;;;5063714;28;20032;-79
2023/04/13 13:54:15;;;;;;;9.65;2.10;;;12.20;99.90;;;;;;5062965;28;20504;-79
2023/04/13 13:56:41;;;;;;;8.65;2.22;;;12.10;99.90;;;;;;5063162;28;20045;-80
2023/04/13 13:59:07;;;;;;;10.95;2.58;;;12.30;99.90;;;;;;5065933;28;20429;-79
2023/04/13 14:01:33;;;;;;;8.05;2.10;;;12.60;99.90;;;;;;5066209;28;20040;-80
2023/04/13 14:03:59;;;;;;;8.32;2.45;;;12.70;99.90;;;;;;5064906;28;20048;-81
2023/04/13 14:06:25;;;;;;;10.15;2.60;;;12.80;99.90;;;;;;5064795;28;20067;-78
2023/04/13 14:08:51;;;;;;;11.18;2.30;;;12.70;99.90;;;;;;5063872;28;20411;-79
2023/04/13 14:11:17;;;;;;;6.68;1.80;;;12.60;99.90;;;;;;5061122;28;20040;-80
2023/04/13 14:13:43;;;;;;;10.23;2.30;;;12.50;99.90;;;;;;5066264;28;20044;-81
2023/04/13 14:16:08;;;;;;;12.13;2.63;;;12.50;99.90;;;;;;5068578;28;20020;-80
2023/04/13 14:18:34;;;;;;;9.98;2.63;;;12.40;99.90;;;;;;5064585;28;20130;-81
2023/04/13 14:21:00;;;;;;;11.25;2.90;;;12.40;99.90;;;;;;5064636;28;20049;-82
2023/04/13 14:23:25;;;;;;;9.52;2.10;;;12.30;99.90;;;;;;5066871;28;21140;-82
2023/04/13 14:25:51;;;;;;;11.32;2.53;;;12.30;99.90;;;;;;5065435;28;20075;-81
2023/04/13 14:28:17;;;;;;;9.82;2.90;;;12.30;99.90;;;;;;5069744;28;20067;-82
2023/04/13 14:30:43;;;;;;;8.50;2.42;;;12.50;99.90;;;;;;5066011;28;20044;-80
2023/04/13 14:33:12;;;;;;;9.40;2.60;;;12.40;99.90;;;;;;5067053;28;20079;-80
2023/04/13 14:35:37;;;;;;;8.23;2.28;;;12.30;99.90;;;;;;5066353;28;20041;-79
2023/04/13 14:38:03;;;;;;;11.15;2.30;;;12.50;99.90;;;;;;5048662;28;20518;-79
2023/04/13 14:40:29;;;;;;;9.18;2.30;;;12.60;99.90;;;;;;5062640;28;20041;-81
2023/04/13 14:42:54;;;;;;;10.55;2.38;;;12.60;99.90;;;;;;5062824;28;20079;-81
2023/04/13 14:45:20;;;;;;;11.13;2.67;;;12.60;99.90;;;;;;5059633;28;20052;-81
2023/04/13 14:47:46;;;;;;;8.10;2.42;;;12.70;99.90;;;;;;5066234;28;20484;-82
2023/04/13 14:50:12;;;;;;;7.90;2.00;;;12.50;99.90;;;;;;5059690;28;20044;-82
2023/04/13 14:52:41;;;;;;;9.07;2.30;;;12.50;99.90;;;;;;5066830;28;20052;-82
2023/04/13 14:55:07;;;;;;;9.70;2.55;;;12.40;99.90;;;;;;5063065;28;20040;-82
2023/04/13 14:57:33;;;;;;;10.95;3.05;;;12.50;99.90;;;;;;5062136;28;20040;-81
2023/04/13 14:59:58;;;;;;;7.88;1.98;;;12.40;99.90;;;;;;5066788;28;20036;-81
2023/04/13 15:02:26;;;;;;;7.63;2.13;;;12.30;99.90;;;;;;5064019;28;20035;-80
2023/04/13 15:04:53;;;;;;;11.73;2.85;;;12.30;99.90;;;;;;5065949;28;20180;-81
2023/04/13 15:07:20;;;;;;;9.70;2.58;;;12.50;99.90;;;;;;5071828;28;20041;-82
2023/04/13 15:09:46;;;;;;;10.23;2.30;;;12.60;99.90;;;;;;5053181;28;20053;-80
2023/04/13 15:12:11;;;;;;;10.88;2.40;;;12.60;99.90;;;;;;5062643;28;20051;-80
2023/04/13 15:14:37;;;;;;;12.95;2.33;;;12.50;99.90;;;;;;5067895;28;20059;-81
2023/04/13 15:17:06;;;;;;;8.38;2.33;;;12.60;99.90;;;;;;5058774;28;20057;-80
2023/04/13 15:19:32;;;;;;;9.02;2.38;;;12.70;99.90;;;;;;5058897;28;20412;-80
2023/04/13 15:21:58;;;;;;;8.73;2.47;;;12.90;99.90;;;;;;5064197;28;20110;-82
2023/04/13 15:24:23;;;;;;;11.35;2.70;;;12.70;99.90;;;;;;5066988;28;20119;-82
2023/04/13 15:26:49;;;;;;;11.75;2.60;;;12.70;99.90;;;;;;5059841;28;20087;-81
2023/04/13 15:29:15;;;;;;;11.43;2.90;;;12.60;99.90;;;;;;5064137;28;20040;-80
2023/04/13 15:31:40;;;;;;;10.63;2.80;;;12.50;99.90;;;;;;5060928;28;20382;-80
2023/04/13 15:34:07;;;;;;;12.35;3.50;;;12.40;99.90;;;;;;5065486;28;20044;-82
2023/04/13 15:36:36;;;;;;;11.05;2.85;;;12.40;99.90;;;;;;5062415;28;20109;-80
2023/04/13 15:39:03;;;;;;;10.63;2.70;;;12.50;99.90;;;;;;5062808;28;20036;-81
2023/04/13 15:41:29;;;;;;;10.02;2.72;;;12.60;99.90;;;;;;5063583;28;20059;-80
2023/04/13 15:43:56;;;;;;;10.50;2.42;;;12.70;99.90;;;;;;5063054;28;20153;-80
2023/04/13 15:46:21;;;;;;;12.00;2.63;;;12.60;99.90;;;;;;5067883;28;20036;-80
2023/04/13 15:48:49;;;;;;;10.77;2.45;;;12.60;99.90;;;;;;5066558;28;20055;-81
2023/04/13 15:51:14;;;;;;;8.45;2.20;;;12.60;99.90;;;;;;5066007;28;20047;-81
2023/04/13 15:53:40;;;;;;;9.80;2.47;;;12.60;99.90;;;;;;5066668;28;20563;-80
2023/04/13 15:56:07;;;;;;;9.30;2.47;;;12.90;99.90;;;;;;5065393;28;20351;-80
2023/04/13 15:58:33;;;;;;;8.88;2.22;;;13.10;99.90;;;;;;5069326;28;20579;-79
2023/04/13 16:01:03;;;;;;;11.95;2.90;;;13.10;99.90;;;;;;5067067;28;20056;-81
2023/04/13 16:03:30;;;;;;;10.48;3.03;;;13.10;99.90;;;;;;5067437;28;20186;-81
2023/04/13 16:05:56;;;;;;;9.68;2.45;;;13.00;99.90;;;;;;5063916;28;20037;-81
2023/04/13 16:08:22;;;;;;;10.18;2.75;;;12.80;99.90;;;;;;5060989;28;20040;-81
2023/04/13 16:10:47;;;;;;;11.80;2.63;;;12.70;99.90;;;;;;5061174;28;20049;-79
2023/04/13 16:13:17;;;;;;;9.57;2.60;;;12.70;99.90;;;;;;5068184;28;20400;-79
2023/04/13 16:15:46;;;;;;;9.75;2.78;;;12.70;99.90;;;;;;5068569;28;20389;-79
2023/04/13 16:18:12;;;;;;;9.80;2.70;;;13.00;99.90;;;;;;5068095;28;20052;-81
2023/04/13 16:20:38;;;;;;;9.02;2.28;;;13.20;99.90;;;;;;5069252;28;20074;-80
2023/04/13 16:23:04;;;;;;;9.60;2.70;;;13.70;99.90;;;;;;5070613;28;20370;-80
2023/04/13 16:25:30;;;;;;;10.70;2.53;;;14.00;99.90;;;;;;5071488;28;20374;-80
2023/04/13 16:27:56;;;;;;;10.20;2.75;;;14.00;99.90;;;;;;5068029;28;20453;-79
2023/04/13 16:30:22;;;;;;;9.82;2.58;;;13.70;99.90;;;;;;5070544;28;20116;-81
2023/04/13 16:32:48;;;;;;;10.10;2.22;;;13.80;99.90;;;;;;5067147;28;20076;-80
2023/04/13 16:35:14;;;;;;;9.30;2.70;;;13.70;99.90;;;;;;5071884;28;20048;-80
2023/04/13 16:37:41;;;;;;;9.77;2.53;;;13.50;99.90;;;;;;5068533;28;20043;-79
2023/04/13 16:40:09;;;;;;;10.95;2.63;;;13.30;99.90;;;;;;5065874;28;20541;-80
2023/04/13 16:42:36;;;;;;;9.88;2.45;;;13.00;99.90;;;;;;5063015;28;20565;-79
2023/04/13 16:45:02;;;;;;;9.98;2.70;;;12.70;99.90;;;;;;5063808;28;20046;-80
2023/04/13 16:47:28;;;;;;;11.85;2.83;;;12.60;99.90;;;;;;5067000;28;20067;-82
2023/04/13 16:49:54;;;;;;;10.70;2.58;;;12.40;99.90;;;;;;5066980;28;20051;-81
2023/04/13 16:52:19;;;;;;;10.55;2.85;;;12.30;99.90;;;;;;5066257;28;20581;-80
2023/04/13 16:54:45;;;;;;;13.88;2.88;;;12.20;99.90;;;;;;5068166;28;20456;-80
2023/04/13 16:57:11;;;;;;;9.80;2.58;;;12.20;99.90;;;;;;5064289;28;20514;-82
2023/04/13 16:59:36;;;;;;;10.52;2.75;;;12.50;99.90;;;;;;5062036;28;20075;-82
2023/04/13 17:02:02;;;;;;;11.02;2.50;;;12.70;99.90;;;;;;5059145;28;20471;-80
2023/04/13 17:04:28;;;;;;;12.68;2.97;;;12.70;99.90;;;;;;5061516;28;20039;-80
2023/04/13 17:07:00;;;;;;;11.52;3.55;;;12.40;99.90;;;;;;5070218;28;20173;-81
2023/04/13 17:09:26;;;;;;;10.05;2.75;;;12.20;99.90;;;;;;5066607;28;20042;-80
2023/04/13 17:11:52;;;;;;;10.20;2.60;;;12.00;99.90;;;;;;5063039;28;20043;-81
2023/04/13 17:14:17;;;;;;;10.95;2.70;;;11.90;99.90;;;;;;5065434;28;20137;-80
2023/04/13 17:16:43;;;;;;;12.93;3.03;;;11.70;99.90;;;;;;5062715;28;20055;-81
2023/04/13 17:19:09;;;;;;;11.68;2.42;;;11.60;99.90;;;;;;5067527;28;20036;-80
2023/04/13 17:21:34;;;;;;;13.60;3.40;;;11.50;99.90;;;;;;5066650;28;20051;-81
2023/04/13 17:24:00;;;;;;;8.77;2.40;;;11.50;99.90;;;;;;5049360;28;20041;-81
2023/04/13 17:26:26;;;;;;;10.98;2.63;;;11.50;99.90;;;;;;5067489;28;20037;-81
2023/04/13 17:28:52;;;;;;;13.05;3.03;;;11.50;99.90;;;;;;5066777;28;20078;-80
2023/04/13 17:31:17;;;;;;;11.75;2.97;;;11.50;99.90;;;;;;5073262;28;20086;-80
2023/04/13 17:33:43;;;;;;;12.32;2.97;;;11.40;99.90;;;;;;5066524;28;20046;-80
2023/04/13 17:36:09;;;;;;;13.05;3.00;;;11.40;99.90;;;;;;5066060;28;20037;-81
2023/04/13 17:38:35;;;;;;;11.45;3.55;;;11.40;99.90;;;;;;5065387;28;20102;-80
2023/04/13 17:41:00;;;;;;;11.15;2.78;;;11.40;99.90;;;;;;5065963;28;20511;-81
2023/04/13 17:43:26;;;;;;;11.18;2.90;;;11.30;99.90;;;;;;5065386;28;20028;-81
2023/04/13 17:45:52;;;;;;;10.77;2.95;;;11.30;99.90;;;;;;5062817;28;20025;-81
2023/04/13 17:48:17;;;;;;;10.45;3.03;;;11.30;99.90;;;;;;5066676;28;20072;-81